ADDS METAR Data INFO
IDs: Format: Raw Decoded Include TAF

Data at: 1750 UTC 21 Oct 2017

KPHD 211653Z AUTO 11004KT 10SM CLR 19/09 A3029 RMK AO2 SLP257 T01890094
KPHD 211553Z AUTO 14005KT 10SM CLR 16/08 A3030 RMK AO2 SLP262 T01610083
KPHD 211453Z AUTO 00000KT 10SM CLR 13/09 A3031 RMK AO2 SLP266 T01330089 50008
KPHD 211353Z AUTO 00000KT 10SM CLR 08/07 A3031 RMK AO2 SLP269 T00830067
KPHD 211253Z AUTO 00000KT 10SM CLR 07/06 A3031 RMK AO2 SLP266 T00670056
KPHD 211153Z AUTO 00000KT 10SM CLR 06/04 A3028 RMK AO2 SLP258 T00560044 10078 20050 51009 $
KPHD 211053Z AUTO 00000KT 10SM CLR 06/04 A3027 RMK AO2 SLP254 T00560044 $
KPHD 210953Z AUTO 00000KT 10SM CLR 06/05 A3027 RMK AO2 SLP251 T00610050 $
KPHD 210853Z AUTO 00000KT 9SM CLR 06/05 A3026 RMK AO2 SLP245 T00610050 53003 $
KPHD 210753Z AUTO 00000KT 10SM CLR 07/06 A3025 RMK AO2 SLP242 T00670056 $
KPHD 210653Z AUTO 12005KT 10SM CLR 07/06 A3024 RMK AO2 SLP238 T00670056 $
KPHD 210553Z AUTO 12003KT 10SM CLR 07/05 A3025 RMK AO2 SLP241 T00670050 10133 20067 58002 $
KPHD 210453Z AUTO 11003KT 10SM CLR 08/06 A3025 RMK AO2 SLP242 T00780056 402440056 $
KPHD 210353Z AUTO 00000KT 10SM CLR 08/06 A3025 RMK AO2 SLP244 T00830061 $
KPHD 210253Z AUTO 00000KT 10SM CLR 09/06 A3025 RMK AO2 SLP245 T00890061 53005 $
KPHD 210153Z AUTO 00000KT 10SM CLR 10/07 A3024 RMK AO2 SLP244 T01000067 $
KPHD 210053Z AUTO 00000KT 10SM CLR 12/07 A3024 RMK AO2 SLP241 T01170067
KPHD 202353Z AUTO 12003KT 10SM CLR 13/07 A3023 RMK AO2 SLP241 T01330067 10244 20133 55003
KPHD 202253Z AUTO 00000KT 10SM CLR 16/07 A3022 RMK AO2 SLP235 T01610067
KPHD 202153Z AUTO 00000KT 10SM CLR 22/06 A3022 RMK AO2 SLP234 T02170061
KPHD 202053Z AUTO 00000KT 10SM CLR 23/03 A3024 RMK AO2 SLP240 T02330033 56010
KPHD 201953Z AUTO VRB03KT 10SM CLR 24/03 A3025 RMK AO2 SLP241 T02390028
KPHD 201853Z AUTO 00000KT 10SM CLR 23/03 A3026 RMK AO2 SLP246 T02280033
KPHD 201753Z AUTO 15004KT 10SM CLR 22/05 A3027 RMK AO2 SLP251 T02170050 10222 20056 58021
KPHD 201653Z AUTO 16005KT 10SM CLR 21/08 A3030 RMK AO2 SLP261 T02060078
KPHD 201553Z AUTO 00000KT 10SM CLR 19/09 A3032 RMK AO2 SLP266 T01940089
KPHD 201453Z AUTO 00000KT 10SM CLR 15/11 A3034 RMK AO2 SLP272 T01500106 50012
KPHD 201353Z AUTO 00000KT 5SM BR CLR 11/09 A3034 RMK AO2 SLP273 T01060094
KPHD 201312Z AUTO 00000KT 4SM BR SCT001 09/08 A3033 RMK AO2 T00890083
KPHD 201304Z AUTO 00000KT 2SM BR BKN001 09/08 A3033 RMK AO2 T00890078
KPHD 201253Z AUTO 00000KT 1SM BR VV001 08/07 A3032 RMK AO2 SLP269 T00780072
KPHD 201233Z AUTO 00000KT 3SM BR BKN002 07/06 A3031 RMK AO2 T00670061
KPHD 201225Z AUTO 00000KT 1 1/4SM BR BKN002 06/06 A3031 RMK AO2 T00610056
KPHD 201153Z AUTO 00000KT 1/2SM FG VV002 06/06 A3030 RMK AO2 SLP262 T00610056 10100 20056 52020
KPHD 201133Z AUTO 00000KT 3/4SM BR VV002 06/06 A3029 RMK AO2 VIS 1/2V1 3/4 T00610056
KPHD 201126Z AUTO 00000KT 1 3/4SM BR BKN001 06/06 A3029 RMK AO2 T00610056
KPHD 201118Z AUTO 00000KT 4SM BR BKN001 06/06 A3029 RMK AO2 T00610056
KPHD 201109Z AUTO 00000KT 8SM SCT001 06/06 A3029 RMK AO2 T00610056
KPHD 201053Z AUTO 00000KT 6SM BR CLR 07/05 A3028 RMK AO2 SLP254 T00670050
KPHD 201026Z AUTO 00000KT 7SM FEW002 07/06 A3027 RMK AO2 T00670056
KPHD 201016Z AUTO 00000KT 2SM BR SCT001 07/06 A3026 RMK AO2 T00720061
KPHD 201002Z AUTO 00000KT 9SM SCT002 07/06 A3026 RMK AO2 T00720061
KPHD 200953Z AUTO 00000KT 9SM BKN002 07/06 A3026 RMK AO2 SLP246 T00720061
KPHD 200930Z AUTO 00000KT 4SM BR BKN001 07/07 A3025 RMK AO2 T00720067
KPHD 200926Z AUTO 00000KT 2SM BR SCT001 07/07 A3025 RMK AO2 T00720067
KPHD 200917Z AUTO 00000KT 3SM BR CLR 08/07 A3025 RMK AO2 T00780067
KPHD 200909Z AUTO 00000KT 1 3/4SM BR CLR 07/07 A3024 RMK AO2 VIS 3/4V5 T00720067
KPHD 200853Z AUTO 00000KT 7SM CLR 08/07 A3024 RMK AO2 SLP239 T00780067 53007
KPHD 200753Z AUTO 00000KT 6SM BR CLR 08/08 A3023 RMK AO2 SLP238 T00830078
KPHD 200717Z AUTO 00000KT 4SM BR CLR 09/08 A3023 RMK AO2 T00890078
KPHD 200709Z AUTO 00000KT 1 3/4SM BR CLR 08/08 A3023 RMK AO2 T00830078
KPHD 200653Z AUTO 00000KT 10SM CLR 09/08 A3022 RMK AO2 SLP232 T00940083
KPHD 200553Z AUTO 00000KT 10SM CLR 09/08 A3022 RMK AO2 SLP232 T00940083 10183 20089 50007